New Hill, North Carolina
Current Conditions -  °F | °C
As of 3:15 AM on Saturday 25 Oct 2014 (Local Time) from KTTA Reporting Station
Haze Haze  
Wind Chill: 43°   Ceiling: 700
Heat Index: 43°   Visibility: 1mi
Dew Point: 43°   Wind: 0mph
Humidity: 100%   Direction: NA
Pressure: 29.98"   Gusts: NA
Location:  35.68°N, 78.94°W
Report Text: KTTA 250715Z AUTO 00000KT 1SM BR VV007 06/06 A2998 RMK AO2 T00610061
Loading
Personal Weather Stations






























Interactive Weather Map
Tropical Storm Tracking
New forecast layout! Learn more

10-Day Weather Forecast

Advertisements
Track Severe Weather on mobile